sensor_id;sensor_type;location;lat;lon;timestamp;P1;durP1;ratioP1;P2;durP2;ratioP2
3881;SDS011;1956;53.482;10.238;2023-02-11T00:04:32;54.67;;;25.67;;
3881;SDS011;1956;53.482;10.238;2023-02-11T00:09:33;54.90;;;28.30;;
3881;SDS011;1956;53.482;10.238;2023-02-11T00:14:33;56.77;;;26.70;;
3881;SDS011;1956;53.482;10.238;2023-02-11T00:19:33;54.40;;;26.53;;
3881;SDS011;1956;53.482;10.238;2023-02-11T00:24:34;53.17;;;25.73;;
3881;SDS011;1956;53.482;10.238;2023-02-11T00:29:35;60.63;;;28.30;;
3881;SDS011;1956;53.482;10.238;2023-02-11T00:34:36;58.37;;;28.77;;
3881;SDS011;1956;53.482;10.238;2023-02-11T00:39:37;53.50;;;26.17;;
3881;SDS011;1956;53.482;10.238;2023-02-11T00:44:37;57.47;;;28.30;;
3881;SDS011;1956;53.482;10.238;2023-02-11T00:49:38;54.13;;;27.87;;
3881;SDS011;1956;53.482;10.238;2023-02-11T00:54:39;54.23;;;28.97;;
3881;SDS011;1956;53.482;10.238;2023-02-11T00:59:39;50.80;;;25.40;;
3881;SDS011;1956;53.482;10.238;2023-02-11T01:04:40;56.20;;;28.13;;
3881;SDS011;1956;53.482;10.238;2023-02-11T01:09:40;67.03;;;32.73;;
3881;SDS011;1956;53.482;10.238;2023-02-11T01:14:40;59.43;;;26.40;;
3881;SDS011;1956;53.482;10.238;2023-02-11T01:19:41;64.57;;;30.07;;
3881;SDS011;1956;53.482;10.238;2023-02-11T01:24:41;55.07;;;29.80;;
3881;SDS011;1956;53.482;10.238;2023-02-11T01:29:42;61.03;;;29.70;;
3881;SDS011;1956;53.482;10.238;2023-02-11T01:34:42;65.83;;;29.63;;
3881;SDS011;1956;53.482;10.238;2023-02-11T01:39:42;67.57;;;32.17;;
3881;SDS011;1956;53.482;10.238;2023-02-11T01:44:43;65.93;;;30.50;;
3881;SDS011;1956;53.482;10.238;2023-02-11T01:49:44;61.97;;;30.30;;
3881;SDS011;1956;53.482;10.238;2023-02-11T01:54:51;56.77;;;28.70;;
3881;SDS011;1956;53.482;10.238;2023-02-11T02:00:44;63.87;;;31.37;;
3881;SDS011;1956;53.482;10.238;2023-02-11T02:05:48;55.47;;;28.40;;
3881;SDS011;1956;53.482;10.238;2023-02-11T02:10:55;59.63;;;26.93;;
3881;SDS011;1956;53.482;10.238;2023-02-11T02:16:00;62.83;;;27.33;;
3881;SDS011;1956;53.482;10.238;2023-02-11T02:27:49;53.53;;;26.23;;
3881;SDS011;1956;53.482;10.238;2023-02-11T02:38:12;58.03;;;24.03;;
3881;SDS011;1956;53.482;10.238;2023-02-11T02:43:17;52.50;;;26.73;;
3881;SDS011;1956;53.482;10.238;2023-02-11T02:48:32;57.73;;;28.10;;
3881;SDS011;1956;53.482;10.238;2023-02-11T02:53:42;49.53;;;26.73;;
3881;SDS011;1956;53.482;10.238;2023-02-11T02:58:53;55.70;;;25.03;;
3881;SDS011;1956;53.482;10.238;2023-02-11T03:10:00;61.37;;;25.67;;
3881;SDS011;1956;53.482;10.238;2023-02-11T03:15:07;54.10;;;25.97;;
3881;SDS011;1956;53.482;10.238;2023-02-11T03:20:09;48.70;;;24.27;;
3881;SDS011;1956;53.482;10.238;2023-02-11T03:25:10;50.77;;;24.70;;
3881;SDS011;1956;53.482;10.238;2023-02-11T03:35:53;43.97;;;22.20;;
3881;SDS011;1956;53.482;10.238;2023-02-11T03:40:57;59.10;;;24.93;;
3881;SDS011;1956;53.482;10.238;2023-02-11T03:45:58;53.37;;;25.30;;
3881;SDS011;1956;53.482;10.238;2023-02-11T03:51:00;48.07;;;23.83;;
3881;SDS011;1956;53.482;10.238;2023-02-11T03:56:04;63.60;;;22.80;;
3881;SDS011;1956;53.482;10.238;2023-02-11T04:01:05;65.77;;;22.30;;
3881;SDS011;1956;53.482;10.238;2023-02-11T04:06:08;52.83;;;21.00;;
3881;SDS011;1956;53.482;10.238;2023-02-11T04:11:09;44.13;;;21.50;;
3881;SDS011;1956;53.482;10.238;2023-02-11T04:16:09;64.40;;;22.90;;
3881;SDS011;1956;53.482;10.238;2023-02-11T04:21:09;56.63;;;21.57;;
3881;SDS011;1956;53.482;10.238;2023-02-11T04:26:10;49.20;;;21.27;;
3881;SDS011;1956;53.482;10.238;2023-02-11T04:31:10;47.77;;;20.23;;
3881;SDS011;1956;53.482;10.238;2023-02-11T04:36:11;42.43;;;20.07;;
3881;SDS011;1956;53.482;10.238;2023-02-11T04:41:12;40.43;;;19.90;;
3881;SDS011;1956;53.482;10.238;2023-02-11T04:46:12;38.37;;;19.80;;
3881;SDS011;1956;53.482;10.238;2023-02-11T04:51:13;41.73;;;19.00;;
3881;SDS011;1956;53.482;10.238;2023-02-11T04:56:13;54.10;;;20.40;;
3881;SDS011;1956;53.482;10.238;2023-02-11T05:01:14;35.20;;;18.50;;
3881;SDS011;1956;53.482;10.238;2023-02-11T05:06:15;44.00;;;19.03;;
3881;SDS011;1956;53.482;10.238;2023-02-11T05:11:16;41.77;;;18.80;;
3881;SDS011;1956;53.482;10.238;2023-02-11T05:16:19;28.87;;;16.10;;
3881;SDS011;1956;53.482;10.238;2023-02-11T05:21:19;39.83;;;16.70;;
3881;SDS011;1956;53.482;10.238;2023-02-11T05:26:20;44.90;;;18.43;;
3881;SDS011;1956;53.482;10.238;2023-02-11T05:31:20;41.33;;;17.53;;
3881;SDS011;1956;53.482;10.238;2023-02-11T05:36:21;37.27;;;18.00;;
3881;SDS011;1956;53.482;10.238;2023-02-11T05:41:21;38.50;;;16.60;;
3881;SDS011;1956;53.482;10.238;2023-02-11T05:46:21;44.60;;;16.73;;
3881;SDS011;1956;53.482;10.238;2023-02-11T05:51:22;42.43;;;16.83;;
3881;SDS011;1956;53.482;10.238;2023-02-11T05:56:24;39.70;;;16.20;;
3881;SDS011;1956;53.482;10.238;2023-02-11T06:01:24;31.80;;;16.93;;
3881;SDS011;1956;53.482;10.238;2023-02-11T06:06:25;28.20;;;14.40;;
3881;SDS011;1956;53.482;10.238;2023-02-11T06:11:25;32.30;;;15.80;;
3881;SDS011;1956;53.482;10.238;2023-02-11T06:16:26;26.03;;;13.93;;
3881;SDS011;1956;53.482;10.238;2023-02-11T06:21:26;29.80;;;13.70;;
3881;SDS011;1956;53.482;10.238;2023-02-11T06:26:26;28.17;;;13.93;;
3881;SDS011;1956;53.482;10.238;2023-02-11T06:31:27;28.07;;;14.80;;
3881;SDS011;1956;53.482;10.238;2023-02-11T06:36:27;26.17;;;13.40;;
3881;SDS011;1956;53.482;10.238;2023-02-11T06:41:28;30.70;;;15.27;;
3881;SDS011;1956;53.482;10.238;2023-02-11T06:46:28;30.37;;;14.77;;
3881;SDS011;1956;53.482;10.238;2023-02-11T06:51:28;26.50;;;14.10;;
3881;SDS011;1956;53.482;10.238;2023-02-11T06:56:29;32.10;;;14.50;;
3881;SDS011;1956;53.482;10.238;2023-02-11T07:01:29;31.57;;;16.30;;
3881;SDS011;1956;53.482;10.238;2023-02-11T07:06:30;26.20;;;14.90;;
3881;SDS011;1956;53.482;10.238;2023-02-11T07:11:30;22.40;;;13.60;;
3881;SDS011;1956;53.482;10.238;2023-02-11T07:16:31;28.13;;;13.30;;
3881;SDS011;1956;53.482;10.238;2023-02-11T07:21:32;28.23;;;12.30;;
3881;SDS011;1956;53.482;10.238;2023-02-11T07:26:32;33.77;;;13.47;;
3881;SDS011;1956;53.482;10.238;2023-02-11T07:31:33;23.07;;;12.33;;
3881;SDS011;1956;53.482;10.238;2023-02-11T07:36:33;28.67;;;14.43;;
3881;SDS011;1956;53.482;10.238;2023-02-11T07:41:33;22.50;;;13.10;;
3881;SDS011;1956;53.482;10.238;2023-02-11T07:46:34;24.70;;;14.20;;
3881;SDS011;1956;53.482;10.238;2023-02-11T07:51:34;29.10;;;14.37;;
3881;SDS011;1956;53.482;10.238;2023-02-11T07:56:35;27.90;;;14.60;;
3881;SDS011;1956;53.482;10.238;2023-02-11T08:01:35;24.07;;;14.30;;
3881;SDS011;1956;53.482;10.238;2023-02-11T08:06:38;31.30;;;15.70;;
3881;SDS011;1956;53.482;10.238;2023-02-11T08:11:40;26.50;;;15.00;;
3881;SDS011;1956;53.482;10.238;2023-02-11T08:16:40;22.47;;;13.90;;
3881;SDS011;1956;53.482;10.238;2023-02-11T08:21:41;32.63;;;14.93;;
3881;SDS011;1956;53.482;10.238;2023-02-11T08:26:42;27.73;;;14.27;;
3881;SDS011;1956;53.482;10.238;2023-02-11T08:31:43;25.17;;;13.80;;
3881;SDS011;1956;53.482;10.238;2023-02-11T08:36:45;34.53;;;14.60;;
3881;SDS011;1956;53.482;10.238;2023-02-11T08:41:50;22.17;;;13.13;;
3881;SDS011;1956;53.482;10.238;2023-02-11T08:46:52;26.93;;;13.80;;
3881;SDS011;1956;53.482;10.238;2023-02-11T08:51:53;29.60;;;15.37;;
3881;SDS011;1956;53.482;10.238;2023-02-11T08:56:55;32.27;;;15.43;;
3881;SDS011;1956;53.482;10.238;2023-02-11T09:01:55;23.70;;;14.83;;
3881;SDS011;1956;53.482;10.238;2023-02-11T09:06:57;31.27;;;16.30;;
3881;SDS011;1956;53.482;10.238;2023-02-11T09:11:57;32.37;;;15.87;;
3881;SDS011;1956;53.482;10.238;2023-02-11T09:17:00;31.00;;;16.50;;
3881;SDS011;1956;53.482;10.238;2023-02-11T09:22:00;32.27;;;17.57;;
3881;SDS011;1956;53.482;10.238;2023-02-11T09:27:04;32.37;;;16.87;;
3881;SDS011;1956;53.482;10.238;2023-02-11T09:32:04;36.67;;;18.40;;
3881;SDS011;1956;53.482;10.238;2023-02-11T09:37:05;32.03;;;17.60;;
3881;SDS011;1956;53.482;10.238;2023-02-11T09:42:10;29.87;;;17.40;;
3881;SDS011;1956;53.482;10.238;2023-02-11T09:47:27;33.73;;;17.70;;
3881;SDS011;1956;53.482;10.238;2023-02-11T09:52:35;31.27;;;18.70;;
3881;SDS011;1956;53.482;10.238;2023-02-11T09:57:39;32.73;;;17.60;;
3881;SDS011;1956;53.482;10.238;2023-02-11T10:02:57;32.03;;;18.67;;
3881;SDS011;1956;53.482;10.238;2023-02-11T10:08:17;31.47;;;17.07;;
3881;SDS011;1956;53.482;10.238;2023-02-11T10:13:30;38.07;;;14.33;;
3881;SDS011;1956;53.482;10.238;2023-02-11T10:18:45;32.30;;;14.47;;
3881;SDS011;1956;53.482;10.238;2023-02-11T10:24:04;26.03;;;12.80;;
3881;SDS011;1956;53.482;10.238;2023-02-11T10:29:18;39.17;;;13.20;;
3881;SDS011;1956;53.482;10.238;2023-02-11T10:34:24;23.37;;;11.63;;
3881;SDS011;1956;53.482;10.238;2023-02-11T10:39:25;25.00;;;13.03;;
3881;SDS011;1956;53.482;10.238;2023-02-11T10:44:37;29.17;;;12.63;;
3881;SDS011;1956;53.482;10.238;2023-02-11T10:49:40;35.47;;;12.70;;
3881;SDS011;1956;53.482;10.238;2023-02-11T10:54:54;32.77;;;12.63;;
3881;SDS011;1956;53.482;10.238;2023-02-11T11:00:07;29.97;;;12.53;;
3881;SDS011;1956;53.482;10.238;2023-02-11T11:05:24;38.20;;;14.80;;
3881;SDS011;1956;53.482;10.238;2023-02-11T11:10:41;26.93;;;13.13;;
3881;SDS011;1956;53.482;10.238;2023-02-11T11:15:43;22.43;;;13.90;;
3881;SDS011;1956;53.482;10.238;2023-02-11T11:20:53;30.90;;;13.77;;
3881;SDS011;1956;53.482;10.238;2023-02-11T11:31:20;23.17;;;9.80;;
3881;SDS011;1956;53.482;10.238;2023-02-11T11:36:30;20.90;;;8.40;;
3881;SDS011;1956;53.482;10.238;2023-02-11T11:41:33;18.30;;;7.33;;
3881;SDS011;1956;53.482;10.238;2023-02-11T11:46:35;21.07;;;10.13;;
3881;SDS011;1956;53.482;10.238;2023-02-11T11:51:37;23.60;;;8.33;;
3881;SDS011;1956;53.482;10.238;2023-02-11T11:56:41;20.40;;;9.27;;
3881;SDS011;1956;53.482;10.238;2023-02-11T12:02:26;14.07;;;7.70;;
3881;SDS011;1956;53.482;10.238;2023-02-11T12:07:48;17.40;;;8.10;;
3881;SDS011;1956;53.482;10.238;2023-02-11T12:13:02;9.73;;;6.70;;
3881;SDS011;1956;53.482;10.238;2023-02-11T12:18:59;18.50;;;7.13;;
3881;SDS011;1956;53.482;10.238;2023-02-11T12:24:22;16.17;;;7.50;;
3881;SDS011;1956;53.482;10.238;2023-02-11T12:35:14;18.20;;;11.50;;
3881;SDS011;1956;53.482;10.238;2023-02-11T12:40:51;22.33;;;10.90;;
3881;SDS011;1956;53.482;10.238;2023-02-11T12:52:06;22.73;;;11.67;;
3881;SDS011;1956;53.482;10.238;2023-02-11T12:57:31;23.50;;;12.83;;
3881;SDS011;1956;53.482;10.238;2023-02-11T13:03:19;20.83;;;11.67;;
3881;SDS011;1956;53.482;10.238;2023-02-11T13:08:02;23.73;;;12.40;;
3881;SDS011;1956;53.482;10.238;2023-02-11T13:13:10;19.13;;;9.80;;
3881;SDS011;1956;53.482;10.238;2023-02-11T13:36:24;15.13;;;10.80;;
3881;SDS011;1956;53.482;10.238;2023-02-11T13:41:22;21.53;;;11.80;;
3881;SDS011;1956;53.482;10.238;2023-02-11T13:46:26;24.33;;;12.37;;
3881;SDS011;1956;53.482;10.238;2023-02-11T13:51:38;22.37;;;12.50;;
3881;SDS011;1956;53.482;10.238;2023-02-11T13:56:40;20.67;;;13.40;;
3881;SDS011;1956;53.482;10.238;2023-02-11T14:02:03;23.27;;;13.53;;
3881;SDS011;1956;53.482;10.238;2023-02-11T14:07:39;22.27;;;12.80;;
3881;SDS011;1956;53.482;10.238;2023-02-11T14:14:00;23.40;;;13.13;;
3881;SDS011;1956;53.482;10.238;2023-02-11T14:19:14;26.00;;;14.53;;
3881;SDS011;1956;53.482;10.238;2023-02-11T14:24:46;25.70;;;14.37;;
3881;SDS011;1956;53.482;10.238;2023-02-11T14:30:12;26.60;;;15.27;;
3881;SDS011;1956;53.482;10.238;2023-02-11T14:35:35;36.57;;;14.13;;
3881;SDS011;1956;53.482;10.238;2023-02-11T14:40:59;30.77;;;14.17;;
3881;SDS011;1956;53.482;10.238;2023-02-11T14:46:10;32.30;;;11.93;;
3881;SDS011;1956;53.482;10.238;2023-02-11T14:51:22;28.73;;;11.07;;
3881;SDS011;1956;53.482;10.238;2023-02-11T14:56:26;26.07;;;10.47;;
3881;SDS011;1956;53.482;10.238;2023-02-11T15:01:34;27.10;;;11.57;;
3881;SDS011;1956;53.482;10.238;2023-02-11T15:06:36;20.00;;;10.63;;
3881;SDS011;1956;53.482;10.238;2023-02-11T15:11:38;25.40;;;10.47;;
3881;SDS011;1956;53.482;10.238;2023-02-11T15:16:41;32.40;;;11.17;;
3881;SDS011;1956;53.482;10.238;2023-02-11T15:21:42;33.00;;;11.40;;
3881;SDS011;1956;53.482;10.238;2023-02-11T15:26:44;32.60;;;11.97;;
3881;SDS011;1956;53.482;10.238;2023-02-11T15:31:44;29.20;;;11.30;;
3881;SDS011;1956;53.482;10.238;2023-02-11T15:36:45;25.83;;;8.60;;
3881;SDS011;1956;53.482;10.238;2023-02-11T15:41:45;17.20;;;8.03;;
3881;SDS011;1956;53.482;10.238;2023-02-11T15:46:45;16.33;;;5.30;;
3881;SDS011;1956;53.482;10.238;2023-02-11T15:51:46;14.27;;;4.57;;
3881;SDS011;1956;53.482;10.238;2023-02-11T15:56:50;16.87;;;4.97;;
3881;SDS011;1956;53.482;10.238;2023-02-11T16:01:51;14.30;;;7.07;;
3881;SDS011;1956;53.482;10.238;2023-02-11T16:06:53;25.00;;;8.20;;
3881;SDS011;1956;53.482;10.238;2023-02-11T16:11:54;29.50;;;7.70;;
3881;SDS011;1956;53.482;10.238;2023-02-11T16:17:39;23.63;;;8.03;;
3881;SDS011;1956;53.482;10.238;2023-02-11T16:22:28;34.73;;;7.87;;
3881;SDS011;1956;53.482;10.238;2023-02-11T16:27:38;54.50;;;7.83;;
3881;SDS011;1956;53.482;10.238;2023-02-11T16:32:40;14.80;;;6.80;;
3881;SDS011;1956;53.482;10.238;2023-02-11T16:37:40;26.67;;;7.13;;
3881;SDS011;1956;53.482;10.238;2023-02-11T16:42:40;22.00;;;7.27;;
3881;SDS011;1956;53.482;10.238;2023-02-11T16:47:41;27.43;;;7.60;;
3881;SDS011;1956;53.482;10.238;2023-02-11T16:52:42;20.63;;;8.00;;
3881;SDS011;1956;53.482;10.238;2023-02-11T16:57:42;27.13;;;7.27;;
3881;SDS011;1956;53.482;10.238;2023-02-11T17:02:43;21.87;;;6.40;;
3881;SDS011;1956;53.482;10.238;2023-02-11T17:07:43;27.30;;;7.40;;
3881;SDS011;1956;53.482;10.238;2023-02-11T17:12:43;23.83;;;8.03;;
3881;SDS011;1956;53.482;10.238;2023-02-11T17:17:44;34.30;;;9.03;;
3881;SDS011;1956;53.482;10.238;2023-02-11T17:22:44;21.13;;;8.57;;
3881;SDS011;1956;53.482;10.238;2023-02-11T17:27:45;32.97;;;9.03;;
3881;SDS011;1956;53.482;10.238;2023-02-11T17:32:45;25.47;;;9.73;;
3881;SDS011;1956;53.482;10.238;2023-02-11T17:37:46;20.20;;;8.87;;
3881;SDS011;1956;53.482;10.238;2023-02-11T17:42:46;33.80;;;8.40;;
3881;SDS011;1956;53.482;10.238;2023-02-11T17:47:47;24.23;;;9.57;;
3881;SDS011;1956;53.482;10.238;2023-02-11T17:52:48;35.93;;;11.43;;
3881;SDS011;1956;53.482;10.238;2023-02-11T17:57:48;44.13;;;15.03;;
3881;SDS011;1956;53.482;10.238;2023-02-11T18:02:49;40.27;;;12.00;;
3881;SDS011;1956;53.482;10.238;2023-02-11T18:07:49;35.23;;;13.40;;
3881;SDS011;1956;53.482;10.238;2023-02-11T18:12:49;38.40;;;15.83;;
3881;SDS011;1956;53.482;10.238;2023-02-11T18:17:50;46.93;;;16.40;;
3881;SDS011;1956;53.482;10.238;2023-02-11T18:22:50;38.70;;;15.50;;
3881;SDS011;1956;53.482;10.238;2023-02-11T18:27:50;29.30;;;12.80;;
3881;SDS011;1956;53.482;10.238;2023-02-11T18:32:54;30.93;;;12.70;;
3881;SDS011;1956;53.482;10.238;2023-02-11T18:37:55;33.97;;;13.20;;
3881;SDS011;1956;53.482;10.238;2023-02-11T18:42:55;32.97;;;14.23;;
3881;SDS011;1956;53.482;10.238;2023-02-11T18:47:55;27.97;;;12.47;;
3881;SDS011;1956;53.482;10.238;2023-02-11T18:52:56;32.47;;;13.90;;
3881;SDS011;1956;53.482;10.238;2023-02-11T18:57:56;41.00;;;14.20;;
3881;SDS011;1956;53.482;10.238;2023-02-11T19:02:57;40.70;;;14.97;;
3881;SDS011;1956;53.482;10.238;2023-02-11T19:07:58;34.53;;;14.77;;
3881;SDS011;1956;53.482;10.238;2023-02-11T19:12:59;41.50;;;14.60;;
3881;SDS011;1956;53.482;10.238;2023-02-11T19:18:00;38.00;;;14.90;;
3881;SDS011;1956;53.482;10.238;2023-02-11T19:23:00;33.47;;;13.63;;
3881;SDS011;1956;53.482;10.238;2023-02-11T19:28:01;34.07;;;11.33;;
3881;SDS011;1956;53.482;10.238;2023-02-11T19:33:02;33.97;;;13.83;;
3881;SDS011;1956;53.482;10.238;2023-02-11T19:38:03;38.43;;;15.83;;
3881;SDS011;1956;53.482;10.238;2023-02-11T19:43:04;45.67;;;14.83;;
3881;SDS011;1956;53.482;10.238;2023-02-11T19:48:04;35.17;;;11.57;;
3881;SDS011;1956;53.482;10.238;2023-02-11T19:53:04;35.57;;;13.20;;
3881;SDS011;1956;53.482;10.238;2023-02-11T19:58:05;37.03;;;11.20;;
3881;SDS011;1956;53.482;10.238;2023-02-11T20:03:05;35.27;;;11.80;;
3881;SDS011;1956;53.482;10.238;2023-02-11T20:08:06;37.30;;;10.63;;
3881;SDS011;1956;53.482;10.238;2023-02-11T20:13:06;34.27;;;9.87;;
3881;SDS011;1956;53.482;10.238;2023-02-11T20:18:06;34.47;;;9.97;;
3881;SDS011;1956;53.482;10.238;2023-02-11T20:23:06;28.70;;;11.97;;
3881;SDS011;1956;53.482;10.238;2023-02-11T20:28:07;29.03;;;11.30;;
3881;SDS011;1956;53.482;10.238;2023-02-11T20:33:07;29.07;;;10.80;;
3881;SDS011;1956;53.482;10.238;2023-02-11T20:38:07;34.03;;;11.97;;
3881;SDS011;1956;53.482;10.238;2023-02-11T20:43:08;39.77;;;12.93;;
3881;SDS011;1956;53.482;10.238;2023-02-11T20:48:08;45.27;;;14.97;;
3881;SDS011;1956;53.482;10.238;2023-02-11T20:53:09;42.70;;;14.47;;
3881;SDS011;1956;53.482;10.238;2023-02-11T20:58:09;29.03;;;13.70;;
3881;SDS011;1956;53.482;10.238;2023-02-11T21:03:10;49.40;;;13.10;;
3881;SDS011;1956;53.482;10.238;2023-02-11T21:08:10;34.03;;;12.40;;
3881;SDS011;1956;53.482;10.238;2023-02-11T21:13:10;42.17;;;12.73;;
3881;SDS011;1956;53.482;10.238;2023-02-11T21:18:11;48.43;;;15.77;;
3881;SDS011;1956;53.482;10.238;2023-02-11T21:23:12;58.30;;;17.10;;
3881;SDS011;1956;53.482;10.238;2023-02-11T21:28:12;49.37;;;17.57;;
3881;SDS011;1956;53.482;10.238;2023-02-11T21:33:13;63.43;;;17.30;;
3881;SDS011;1956;53.482;10.238;2023-02-11T21:38:14;44.70;;;16.57;;
3881;SDS011;1956;53.482;10.238;2023-02-11T21:43:14;49.67;;;15.80;;
3881;SDS011;1956;53.482;10.238;2023-02-11T21:48:16;55.60;;;16.87;;
3881;SDS011;1956;53.482;10.238;2023-02-11T21:53:17;47.27;;;17.07;;
3881;SDS011;1956;53.482;10.238;2023-02-11T21:58:17;61.63;;;18.90;;
3881;SDS011;1956;53.482;10.238;2023-02-11T22:03:18;61.77;;;21.47;;
3881;SDS011;1956;53.482;10.238;2023-02-11T22:08:18;96.03;;;22.43;;
3881;SDS011;1956;53.482;10.238;2023-02-11T22:13:18;78.03;;;19.27;;
3881;SDS011;1956;53.482;10.238;2023-02-11T22:18:19;63.97;;;20.40;;
3881;SDS011;1956;53.482;10.238;2023-02-11T22:23:19;52.40;;;20.27;;
3881;SDS011;1956;53.482;10.238;2023-02-11T22:28:19;53.37;;;18.53;;
3881;SDS011;1956;53.482;10.238;2023-02-11T22:33:20;69.43;;;21.10;;
3881;SDS011;1956;53.482;10.238;2023-02-11T22:38:22;59.83;;;19.50;;
3881;SDS011;1956;53.482;10.238;2023-02-11T22:43:22;45.03;;;16.57;;
3881;SDS011;1956;53.482;10.238;2023-02-11T22:48:23;49.60;;;14.37;;
3881;SDS011;1956;53.482;10.238;2023-02-11T22:53:23;53.77;;;16.13;;
3881;SDS011;1956;53.482;10.238;2023-02-11T22:58:24;40.50;;;15.50;;
3881;SDS011;1956;53.482;10.238;2023-02-11T23:03:24;38.77;;;14.43;;
3881;SDS011;1956;53.482;10.238;2023-02-11T23:08:25;46.80;;;14.07;;
3881;SDS011;1956;53.482;10.238;2023-02-11T23:13:27;43.23;;;14.27;;
3881;SDS011;1956;53.482;10.238;2023-02-11T23:18:27;36.30;;;13.70;;
3881;SDS011;1956;53.482;10.238;2023-02-11T23:23:27;39.17;;;13.97;;
3881;SDS011;1956;53.482;10.238;2023-02-11T23:28:28;34.73;;;13.67;;
3881;SDS011;1956;53.482;10.238;2023-02-11T23:33:28;29.60;;;12.43;;
3881;SDS011;1956;53.482;10.238;2023-02-11T23:38:28;25.53;;;12.73;;
3881;SDS011;1956;53.482;10.238;2023-02-11T23:43:29;26.00;;;11.20;;
3881;SDS011;1956;53.482;10.238;2023-02-11T23:48:29;26.40;;;11.03;;
3881;SDS011;1956;53.482;10.238;2023-02-11T23:53:30;23.67;;;10.03;;
3881;SDS011;1956;53.482;10.238;2023-02-11T23:58:30;25.70;;;10.30;;
